RYR4ZJ LIEA-LIRP
Flight info
| Callsign | RYR4ZJ |
|---|---|
| Flight time | 0h 40m |
| Altitude | 30000 |
| Route | MINKA L5 POZZO DCT OLBEK DCT NEMIT Q125 ELB |
| Aircraft | B738/M-SDE3FGILRWY/SB1 |
Departure
| Time | 2026-05-09 22:00 |
|---|---|
| Airport | Alghero-Fertilia Airport (LIEA) |
Arrival
| Time | 2026-05-09 22:40 |
|---|---|
| Airport | Pisa International Airport (LIRP) |
| Time | Latitude | Longitude | Altitude | Speed | Heading |
|---|---|---|---|---|---|
| 2026-05-09 21:23 | 40.63082 | 8.29467 | 89 ft | 0 kts | 114° |
| 2026-05-09 21:53 | 40.63084 | 8.29460 | 88 ft | 3 kts | 116° |
| 2026-05-09 21:53 | 40.63096 | 8.29434 | 91 ft | 3 kts | 133° |
| 2026-05-09 21:54 | 40.63131 | 8.29415 | 91 ft | 2 kts | 204° |
| 2026-05-09 21:54 | 40.63132 | 8.29415 | 91 ft | 0 kts | 204° |
| 2026-05-09 21:55 | 40.63131 | 8.29415 | 91 ft | 0 kts | 204° |
| 2026-05-09 21:56 | 40.63119 | 8.29408 | 92 ft | 5 kts | 204° |
| 2026-05-09 21:56 | 40.63051 | 8.29368 | 91 ft | 14 kts | 204° |
| 2026-05-09 21:56 | 40.62962 | 8.29315 | 90 ft | 14 kts | 204° |
| 2026-05-09 21:56 | 40.62884 | 8.29264 | 90 ft | 12 kts | 220° |
| 2026-05-09 21:57 | 40.62849 | 8.29163 | 88 ft | 14 kts | 250° |
| 2026-05-09 21:57 | 40.62776 | 8.29064 | 87 ft | 18 kts | 205° |
| 2026-05-09 21:57 | 40.62629 | 8.28975 | 84 ft | 27 kts | 204° |
| 2026-05-09 21:57 | 40.62457 | 8.28872 | 79 ft | 26 kts | 205° |
| 2026-05-09 21:58 | 40.62296 | 8.28775 | 82 ft | 25 kts | 205° |
| 2026-05-09 21:58 | 40.62147 | 8.28684 | 84 ft | 23 kts | 205° |
| 2026-05-09 21:58 | 40.62004 | 8.28598 | 87 ft | 19 kts | 205° |
| 2026-05-09 21:58 | 40.61934 | 8.28522 | 83 ft | 13 kts | 248° |
| 2026-05-09 21:59 | 40.61952 | 8.28413 | 83 ft | 13 kts | 319° |
| 2026-05-09 21:59 | 40.62033 | 8.28374 | 87 ft | 13 kts | 5° |
| 2026-05-09 21:59 | 40.62237 | 8.28491 | 85 ft | 64 kts | 25° |
| 2026-05-09 21:59 | 40.62852 | 8.28860 | 93 ft | 126 kts | 25° |
| 2026-05-09 22:00 | 40.63789 | 8.29425 | 226 ft | 162 kts | 24° |
| 2026-05-09 22:00 | 40.64791 | 8.30030 | 841 ft | 164 kts | 29° |
| 2026-05-09 22:00 | 40.65900 | 8.30715 | 1242 ft | 182 kts | 34° |
| 2026-05-09 22:00 | 40.67095 | 8.31454 | 1607 ft | 206 kts | 34° |
| 2026-05-09 22:01 | 40.68482 | 8.32298 | 1956 ft | 227 kts | 32° |
| 2026-05-09 22:01 | 40.69957 | 8.33180 | 2377 ft | 239 kts | 32° |
| 2026-05-09 22:01 | 40.71503 | 8.34101 | 2935 ft | 245 kts | 30° |
| 2026-05-09 22:01 | 40.73057 | 8.35026 | 3610 ft | 249 kts | 29° |
| 2026-05-09 22:02 | 40.74719 | 8.36025 | 3861 ft | 276 kts | 28° |
| 2026-05-09 22:02 | 40.76495 | 8.37092 | 4350 ft | 288 kts | 26° |
| 2026-05-09 22:02 | 40.78289 | 8.38301 | 5071 ft | 291 kts | 39° |
| 2026-05-09 22:02 | 40.79585 | 8.40309 | 5828 ft | 288 kts | 65° |
| 2026-05-09 22:03 | 40.80342 | 8.42773 | 6532 ft | 291 kts | 73° |
| 2026-05-09 22:03 | 40.81005 | 8.45322 | 7201 ft | 297 kts | 73° |
| 2026-05-09 22:03 | 40.81673 | 8.47928 | 7905 ft | 301 kts | 73° |
| 2026-05-09 22:03 | 40.82357 | 8.50559 | 8715 ft | 303 kts | 72° |
| 2026-05-09 22:04 | 40.83049 | 8.53174 | 9460 ft | 309 kts | 72° |
| 2026-05-09 22:04 | 40.83771 | 8.55882 | 10138 ft | 316 kts | 72° |
| 2026-05-09 22:04 | 40.84529 | 8.58722 | 10406 ft | 339 kts | 72° |
| 2026-05-09 22:04 | 40.85095 | 8.61837 | 10582 ft | 360 kts | 91° |
| 2026-05-09 22:05 | 40.84791 | 8.65152 | 11118 ft | 365 kts | 104° |
| 2026-05-09 22:05 | 40.84308 | 8.68470 | 11837 ft | 369 kts | 104° |
| 2026-05-09 22:05 | 40.83823 | 8.71777 | 12562 ft | 373 kts | 104° |
| 2026-05-09 22:05 | 40.83340 | 8.75179 | 13284 ft | 379 kts | 103° |
| 2026-05-09 22:06 | 40.82862 | 8.78633 | 13973 ft | 384 kts | 103° |
| 2026-05-09 22:06 | 40.82383 | 8.82127 | 14721 ft | 387 kts | 103° |
| 2026-05-09 22:06 | 40.82198 | 8.85706 | 15431 ft | 397 kts | 86° |
| 2026-05-09 22:06 | 40.82916 | 8.89213 | 16169 ft | 404 kts | 70° |
| 2026-05-09 22:07 | 40.83990 | 8.92670 | 16866 ft | 409 kts | 69° |
| 2026-05-09 22:07 | 40.85117 | 8.96166 | 17529 ft | 415 kts | 69° |
| 2026-05-09 22:07 | 40.86256 | 8.99705 | 18250 ft | 419 kts | 69° |
| 2026-05-09 22:07 | 40.87377 | 9.03241 | 18848 ft | 424 kts | 69° |
| 2026-05-09 22:08 | 40.88506 | 9.06855 | 19486 ft | 427 kts | 70° |
| 2026-05-09 22:08 | 40.89633 | 9.10501 | 20121 ft | 430 kts | 69° |
| 2026-05-09 22:08 | 40.90761 | 9.14171 | 20747 ft | 432 kts | 69° |
| 2026-05-09 22:08 | 40.91901 | 9.17883 | 21369 ft | 436 kts | 70° |
| 2026-05-09 22:09 | 40.93047 | 9.21619 | 21947 ft | 439 kts | 70° |
| 2026-05-09 22:09 | 40.94213 | 9.25370 | 22539 ft | 443 kts | 68° |
| 2026-05-09 22:09 | 40.95698 | 9.28981 | 23094 ft | 448 kts | 57° |
| 2026-05-09 22:09 | 40.97474 | 9.32321 | 23682 ft | 451 kts | 56° |
| 2026-05-09 22:10 | 40.99324 | 9.35684 | 24222 ft | 452 kts | 55° |
| 2026-05-09 22:10 | 41.01187 | 9.39058 | 24714 ft | 454 kts | 56° |
| 2026-05-09 22:10 | 41.03052 | 9.42467 | 25170 ft | 457 kts | 56° |
| 2026-05-09 22:10 | 41.04913 | 9.45905 | 25601 ft | 460 kts | 56° |
| 2026-05-09 22:11 | 41.06763 | 9.49351 | 25872 ft | 467 kts | 57° |
| 2026-05-09 22:11 | 41.08658 | 9.52901 | 26200 ft | 472 kts | 57° |
| 2026-05-09 22:11 | 41.10555 | 9.56465 | 26671 ft | 474 kts | 57° |
| 2026-05-09 22:11 | 41.12462 | 9.60049 | 27144 ft | 475 kts | 58° |
| 2026-05-09 22:12 | 41.14373 | 9.63644 | 27579 ft | 477 kts | 58° |
| 2026-05-09 22:12 | 41.16269 | 9.67215 | 27976 ft | 480 kts | 58° |
| 2026-05-09 22:12 | 41.18199 | 9.70853 | 28362 ft | 483 kts | 58° |
| 2026-05-09 22:12 | 41.20141 | 9.74515 | 28757 ft | 486 kts | 58° |
| 2026-05-09 22:13 | 41.22083 | 9.78183 | 29272 ft | 485 kts | 58° |
| 2026-05-09 22:13 | 41.24149 | 9.81743 | 29836 ft | 486 kts | 49° |
| 2026-05-09 22:13 | 41.26720 | 9.84699 | 29987 ft | 492 kts | 35° |
| 2026-05-09 22:13 | 41.29669 | 9.86836 | 30037 ft | 485 kts | 22° |
| 2026-05-09 22:14 | 41.36106 | 9.89259 | 30042 ft | 480 kts | 14° |
| 2026-05-09 22:14 | 41.42630 | 9.91479 | 30037 ft | 485 kts | 14° |
| 2026-05-09 22:15 | 41.49190 | 9.93793 | 30034 ft | 488 kts | 15° |
| 2026-05-09 22:15 | 41.55720 | 9.96153 | 30036 ft | 489 kts | 15° |
| 2026-05-09 22:16 | 41.62284 | 9.98542 | 30031 ft | 487 kts | 15° |
| 2026-05-09 22:16 | 41.68771 | 10.00906 | 30040 ft | 485 kts | 15° |
| 2026-05-09 22:17 | 41.75270 | 10.03276 | 29883 ft | 481 kts | 15° |
| 2026-05-09 22:17 | 41.78489 | 10.04451 | 29447 ft | 475 kts | 14° |
| 2026-05-09 22:17 | 41.81670 | 10.05614 | 28961 ft | 470 kts | 14° |
| 2026-05-09 22:18 | 41.84805 | 10.06761 | 28478 ft | 465 kts | 14° |
| 2026-05-09 22:18 | 41.87912 | 10.07899 | 27982 ft | 461 kts | 14° |
| 2026-05-09 22:18 | 41.90994 | 10.09029 | 27495 ft | 457 kts | 14° |
| 2026-05-09 22:18 | 41.94045 | 10.10149 | 27021 ft | 453 kts | 14° |
| 2026-05-09 22:19 | 41.97040 | 10.11249 | 26559 ft | 449 kts | 14° |
| 2026-05-09 22:19 | 42.00046 | 10.12354 | 26087 ft | 446 kts | 14° |
| 2026-05-09 22:19 | 42.03022 | 10.13450 | 25625 ft | 442 kts | 14° |
| 2026-05-09 22:19 | 42.05981 | 10.14540 | 25152 ft | 439 kts | 14° |
| 2026-05-09 22:20 | 42.08921 | 10.15624 | 24700 ft | 436 kts | 14° |
| 2026-05-09 22:20 | 42.11843 | 10.16703 | 24240 ft | 433 kts | 14° |
| 2026-05-09 22:20 | 42.14757 | 10.17779 | 23758 ft | 431 kts | 14° |
| 2026-05-09 22:20 | 42.17647 | 10.18848 | 23246 ft | 429 kts | 14° |
| 2026-05-09 22:21 | 42.20480 | 10.19897 | 22739 ft | 425 kts | 14° |
| 2026-05-09 22:21 | 42.23322 | 10.20952 | 22261 ft | 421 kts | 13° |
| 2026-05-09 22:21 | 42.26135 | 10.21995 | 21819 ft | 417 kts | 13° |
| 2026-05-09 22:21 | 42.28927 | 10.23031 | 21324 ft | 414 kts | 13° |
| 2026-05-09 22:22 | 42.31697 | 10.24059 | 20848 ft | 411 kts | 13° |
| 2026-05-09 22:22 | 42.34448 | 10.25082 | 20390 ft | 408 kts | 13° |
| 2026-05-09 22:22 | 42.37148 | 10.26087 | 19973 ft | 404 kts | 13° |
| 2026-05-09 22:22 | 42.39830 | 10.27089 | 19742 ft | 395 kts | 13° |
| 2026-05-09 22:23 | 42.42468 | 10.28076 | 19480 ft | 389 kts | 13° |
| 2026-05-09 22:23 | 42.45071 | 10.29050 | 19099 ft | 386 kts | 13° |
| 2026-05-09 22:23 | 42.47654 | 10.30016 | 18694 ft | 384 kts | 13° |
| 2026-05-09 22:23 | 42.50194 | 10.30967 | 18266 ft | 382 kts | 13° |
| 2026-05-09 22:24 | 42.52757 | 10.31927 | 17776 ft | 381 kts | 13° |
| 2026-05-09 22:24 | 42.55315 | 10.32887 | 17338 ft | 379 kts | 13° |
| 2026-05-09 22:24 | 42.57848 | 10.33838 | 16888 ft | 376 kts | 13° |
| 2026-05-09 22:24 | 42.60366 | 10.34785 | 16451 ft | 374 kts | 13° |
| 2026-05-09 22:25 | 42.62870 | 10.35727 | 16021 ft | 372 kts | 13° |
| 2026-05-09 22:25 | 42.65354 | 10.36662 | 15597 ft | 369 kts | 13° |
| 2026-05-09 22:25 | 42.67823 | 10.37592 | 15177 ft | 367 kts | 13° |
| 2026-05-09 22:25 | 42.70283 | 10.38520 | 14757 ft | 365 kts | 13° |
| 2026-05-09 22:26 | 42.72726 | 10.39260 | 14342 ft | 361 kts | 4° |
| 2026-05-09 22:26 | 42.75216 | 10.39374 | 13967 ft | 355 kts | 353° |
| 2026-05-09 22:26 | 42.77662 | 10.39067 | 13568 ft | 352 kts | 351° |
| 2026-05-09 22:26 | 42.80093 | 10.38714 | 13121 ft | 350 kts | 351° |
| 2026-05-09 22:27 | 42.82510 | 10.38351 | 12682 ft | 348 kts | 351° |
| 2026-05-09 22:27 | 42.84922 | 10.37994 | 12269 ft | 346 kts | 351° |
| 2026-05-09 22:27 | 42.87286 | 10.37654 | 11860 ft | 345 kts | 352° |
| 2026-05-09 22:27 | 42.89678 | 10.37316 | 11450 ft | 343 kts | 352° |
| 2026-05-09 22:28 | 42.92051 | 10.36986 | 11044 ft | 341 kts | 352° |
| 2026-05-09 22:28 | 42.94408 | 10.36661 | 10690 ft | 339 kts | 353° |
| 2026-05-09 22:28 | 42.96717 | 10.36344 | 10540 ft | 329 kts | 353° |
| 2026-05-09 22:28 | 42.98973 | 10.36035 | 10382 ft | 321 kts | 353° |
| 2026-05-09 22:29 | 43.01137 | 10.35738 | 10239 ft | 312 kts | 353° |
| 2026-05-09 22:29 | 43.03282 | 10.35444 | 10102 ft | 305 kts | 353° |
| 2026-05-09 22:29 | 43.05374 | 10.35156 | 9862 ft | 301 kts | 353° |
| 2026-05-09 22:29 | 43.07456 | 10.34869 | 9555 ft | 300 kts | 353° |
| 2026-05-09 22:30 | 43.09509 | 10.34586 | 9252 ft | 298 kts | 354° |
| 2026-05-09 22:30 | 43.11574 | 10.34301 | 8951 ft | 297 kts | 354° |
| 2026-05-09 22:30 | 43.13639 | 10.34017 | 8647 ft | 296 kts | 354° |
| 2026-05-09 22:30 | 43.15662 | 10.33737 | 8352 ft | 295 kts | 354° |
| 2026-05-09 22:31 | 43.17701 | 10.33425 | 8047 ft | 295 kts | 349° |
| 2026-05-09 22:31 | 43.19673 | 10.32661 | 7738 ft | 294 kts | 340° |
| 2026-05-09 22:31 | 43.21588 | 10.31676 | 7442 ft | 293 kts | 338° |
| 2026-05-09 22:31 | 43.22849 | 10.31001 | 7252 ft | 293 kts | 338° |
| 2026-05-09 22:32 | 43.24752 | 10.29987 | 6941 ft | 293 kts | 339° |
| 2026-05-09 22:32 | 43.27283 | 10.28662 | 6534 ft | 294 kts | 339° |
| 2026-05-09 22:32 | 43.28579 | 10.27994 | 6294 ft | 295 kts | 339° |
| 2026-05-09 22:32 | 43.30505 | 10.27010 | 5976 ft | 295 kts | 340° |
| 2026-05-09 22:33 | 43.32407 | 10.26045 | 5686 ft | 294 kts | 340° |
| 2026-05-09 22:33 | 43.34327 | 10.25073 | 5387 ft | 293 kts | 340° |
| 2026-05-09 22:33 | 43.36237 | 10.24109 | 5117 ft | 292 kts | 340° |
| 2026-05-09 22:33 | 43.38122 | 10.23157 | 4835 ft | 291 kts | 341° |
| 2026-05-09 22:34 | 43.40009 | 10.22204 | 4693 ft | 284 kts | 341° |
| 2026-05-09 22:34 | 43.41839 | 10.21280 | 4565 ft | 277 kts | 341° |
| 2026-05-09 22:34 | 43.43626 | 10.20378 | 4455 ft | 269 kts | 341° |
| 2026-05-09 22:34 | 43.45367 | 10.19498 | 4336 ft | 263 kts | 341° |
| 2026-05-09 22:35 | 43.47089 | 10.18763 | 4205 ft | 255 kts | 356° |
| 2026-05-09 22:35 | 43.48753 | 10.19169 | 4034 ft | 241 kts | 32° |
| 2026-05-09 22:35 | 43.50136 | 10.20421 | 3817 ft | 237 kts | 42° |
| 2026-05-09 22:35 | 43.51424 | 10.21811 | 3558 ft | 232 kts | 42° |
| 2026-05-09 22:36 | 43.52686 | 10.23154 | 3328 ft | 226 kts | 41° |
| 2026-05-09 22:36 | 43.53921 | 10.24444 | 3108 ft | 219 kts | 41° |
| 2026-05-09 22:36 | 43.55095 | 10.25659 | 2979 ft | 207 kts | 41° |
| 2026-05-09 22:36 | 43.56233 | 10.26840 | 2731 ft | 202 kts | 41° |
| 2026-05-09 22:37 | 43.57328 | 10.27976 | 2470 ft | 196 kts | 39° |
| 2026-05-09 22:37 | 43.58407 | 10.29094 | 2201 ft | 191 kts | 39° |
| 2026-05-09 22:37 | 43.59458 | 10.30183 | 1949 ft | 186 kts | 39° |
| 2026-05-09 22:37 | 43.60480 | 10.31242 | 1707 ft | 181 kts | 39° |
| 2026-05-09 22:38 | 43.61476 | 10.32274 | 1450 ft | 177 kts | 38° |
| 2026-05-09 22:38 | 43.62469 | 10.33310 | 1211 ft | 180 kts | 39° |
| 2026-05-09 22:38 | 43.63443 | 10.34348 | 982 ft | 172 kts | 38° |
| 2026-05-09 22:39 | 43.65205 | 10.36143 | 555 ft | 150 kts | 37° |
| 2026-05-09 22:39 | 43.66034 | 10.37004 | 367 ft | 149 kts | 37° |
| 2026-05-09 22:39 | 43.66866 | 10.37864 | 179 ft | 149 kts | 37° |
| 2026-05-09 22:40 | 43.68358 | 10.39406 | 18 ft | 100 kts | 37° |
| 2026-05-09 22:40 | 43.68794 | 10.39857 | 17 ft | 56 kts | 36° |
| 2026-05-09 22:40 | 43.69041 | 10.40112 | 20 ft | 32 kts | 37° |
| 2026-05-09 22:40 | 43.69195 | 10.40271 | 19 ft | 22 kts | 37° |
| 2026-05-09 22:41 | 43.69279 | 10.40292 | 20 ft | 13 kts | 317° |
| 2026-05-09 22:41 | 43.69337 | 10.40189 | 19 ft | 13 kts | 307° |
| 2026-05-09 22:41 | 43.69402 | 10.40103 | 21 ft | 13 kts | 344° |
| 2026-05-09 22:41 | 43.69506 | 10.40081 | 15 ft | 17 kts | 352° |
| 2026-05-09 22:42 | 43.69620 | 10.40059 | 16 ft | 12 kts | 352° |
| 2026-05-09 22:42 | 43.69690 | 10.40086 | 15 ft | 11 kts | 59° |
| 2026-05-09 22:42 | 43.69731 | 10.40145 | 14 ft | 8 kts | 12° |
| 2026-05-09 22:42 | 43.69764 | 10.40152 | 14 ft | 2 kts | 8° |
| 2026-05-09 22:43 | 43.69766 | 10.40153 | 14 ft | 0 kts | 8° |